sensor_id;sensor_type;location;lat;lon;timestamp;P1;durP1;ratioP1;P2;durP2;ratioP2
11431;SDS011;5772;50.940;6.782;2022-10-16T00:00:54;24.07;;;23.10;;
11431;SDS011;5772;50.940;6.782;2022-10-16T00:03:19;25.13;;;24.00;;
11431;SDS011;5772;50.940;6.782;2022-10-16T00:05:45;23.47;;;22.47;;
11431;SDS011;5772;50.940;6.782;2022-10-16T00:08:11;23.83;;;22.83;;
11431;SDS011;5772;50.940;6.782;2022-10-16T00:10:37;24.87;;;23.80;;
11431;SDS011;5772;50.940;6.782;2022-10-16T00:13:03;24.93;;;23.93;;
11431;SDS011;5772;50.940;6.782;2022-10-16T00:15:30;25.20;;;24.10;;
11431;SDS011;5772;50.940;6.782;2022-10-16T00:17:55;24.90;;;23.90;;
11431;SDS011;5772;50.940;6.782;2022-10-16T00:20:21;24.73;;;23.63;;
11431;SDS011;5772;50.940;6.782;2022-10-16T00:22:46;24.93;;;23.83;;
11431;SDS011;5772;50.940;6.782;2022-10-16T00:25:11;24.40;;;23.40;;
11431;SDS011;5772;50.940;6.782;2022-10-16T00:27:37;24.77;;;23.57;;
11431;SDS011;5772;50.940;6.782;2022-10-16T00:30:02;25.70;;;24.60;;
11431;SDS011;5772;50.940;6.782;2022-10-16T00:32:30;24.60;;;23.57;;
11431;SDS011;5772;50.940;6.782;2022-10-16T00:34:55;24.63;;;23.63;;
11431;SDS011;5772;50.940;6.782;2022-10-16T00:37:21;25.83;;;24.77;;
11431;SDS011;5772;50.940;6.782;2022-10-16T00:39:46;25.50;;;24.40;;
11431;SDS011;5772;50.940;6.782;2022-10-16T00:42:13;26.73;;;25.53;;
11431;SDS011;5772;50.940;6.782;2022-10-16T00:44:47;24.30;;;23.30;;
11431;SDS011;5772;50.940;6.782;2022-10-16T00:47:15;24.70;;;23.70;;
11431;SDS011;5772;50.940;6.782;2022-10-16T00:49:45;25.83;;;24.63;;
11431;SDS011;5772;50.940;6.782;2022-10-16T00:52:11;25.77;;;24.77;;
11431;SDS011;5772;50.940;6.782;2022-10-16T00:54:37;24.73;;;23.73;;
11431;SDS011;5772;50.940;6.782;2022-10-16T00:57:03;27.50;;;26.03;;
11431;SDS011;5772;50.940;6.782;2022-10-16T00:59:31;27.17;;;26.00;;
11431;SDS011;5772;50.940;6.782;2022-10-16T01:01:57;25.57;;;24.57;;
11431;SDS011;5772;50.940;6.782;2022-10-16T01:04:24;26.40;;;25.17;;
11431;SDS011;5772;50.940;6.782;2022-10-16T01:06:52;26.13;;;24.93;;
11431;SDS011;5772;50.940;6.782;2022-10-16T01:09:23;25.87;;;24.77;;
11431;SDS011;5772;50.940;6.782;2022-10-16T01:11:55;26.03;;;24.93;;
11431;SDS011;5772;50.940;6.782;2022-10-16T01:14:26;25.70;;;24.60;;
11431;SDS011;5772;50.940;6.782;2022-10-16T01:16:57;25.67;;;24.63;;
11431;SDS011;5772;50.940;6.782;2022-10-16T01:19:36;26.10;;;24.90;;
11431;SDS011;5772;50.940;6.782;2022-10-16T01:22:10;24.20;;;23.20;;
11431;SDS011;5772;50.940;6.782;2022-10-16T01:24:37;24.60;;;23.60;;
11431;SDS011;5772;50.940;6.782;2022-10-16T01:27:08;24.53;;;23.53;;
11431;SDS011;5772;50.940;6.782;2022-10-16T01:29:36;26.33;;;25.20;;
11431;SDS011;5772;50.940;6.782;2022-10-16T01:32:08;25.53;;;24.53;;
11431;SDS011;5772;50.940;6.782;2022-10-16T01:34:37;26.63;;;25.47;;
11431;SDS011;5772;50.940;6.782;2022-10-16T01:37:05;25.43;;;24.33;;
11431;SDS011;5772;50.940;6.782;2022-10-16T01:39:33;25.37;;;24.37;;
11431;SDS011;5772;50.940;6.782;2022-10-16T01:42:00;24.80;;;23.80;;
11431;SDS011;5772;50.940;6.782;2022-10-16T01:44:29;25.50;;;24.50;;
11431;SDS011;5772;50.940;6.782;2022-10-16T01:46:56;26.47;;;25.40;;
11431;SDS011;5772;50.940;6.782;2022-10-16T01:49:22;23.93;;;23.03;;
11431;SDS011;5772;50.940;6.782;2022-10-16T01:51:49;24.90;;;23.90;;
11431;SDS011;5772;50.940;6.782;2022-10-16T01:54:17;25.17;;;24.13;;
11431;SDS011;5772;50.940;6.782;2022-10-16T01:56:44;25.53;;;24.53;;
11431;SDS011;5772;50.940;6.782;2022-10-16T01:59:11;27.13;;;25.90;;
11431;SDS011;5772;50.940;6.782;2022-10-16T02:01:40;25.13;;;24.03;;
11431;SDS011;5772;50.940;6.782;2022-10-16T02:04:07;26.43;;;25.40;;
11431;SDS011;5772;50.940;6.782;2022-10-16T02:06:36;26.07;;;24.93;;
11431;SDS011;5772;50.940;6.782;2022-10-16T02:09:01;23.87;;;22.97;;
11431;SDS011;5772;50.940;6.782;2022-10-16T02:11:27;24.53;;;23.40;;
11431;SDS011;5772;50.940;6.782;2022-10-16T02:13:53;25.00;;;24.00;;
11431;SDS011;5772;50.940;6.782;2022-10-16T02:16:20;25.10;;;24.10;;
11431;SDS011;5772;50.940;6.782;2022-10-16T02:18:47;24.10;;;23.17;;
11431;SDS011;5772;50.940;6.782;2022-10-16T02:21:14;23.97;;;22.97;;
11431;SDS011;5772;50.940;6.782;2022-10-16T02:23:45;25.00;;;24.00;;
11431;SDS011;5772;50.940;6.782;2022-10-16T02:26:15;25.37;;;24.37;;
11431;SDS011;5772;50.940;6.782;2022-10-16T02:28:44;25.37;;;24.30;;
11431;SDS011;5772;50.940;6.782;2022-10-16T02:31:11;25.53;;;24.43;;
11431;SDS011;5772;50.940;6.782;2022-10-16T02:33:37;26.00;;;25.00;;
11431;SDS011;5772;50.940;6.782;2022-10-16T02:36:04;25.97;;;24.97;;
11431;SDS011;5772;50.940;6.782;2022-10-16T02:38:30;26.00;;;25.00;;
11431;SDS011;5772;50.940;6.782;2022-10-16T02:40:56;25.67;;;24.57;;
11431;SDS011;5772;50.940;6.782;2022-10-16T02:43:21;25.23;;;24.23;;
11431;SDS011;5772;50.940;6.782;2022-10-16T02:45:47;25.93;;;24.90;;
11431;SDS011;5772;50.940;6.782;2022-10-16T02:48:12;25.00;;;24.00;;
11431;SDS011;5772;50.940;6.782;2022-10-16T02:50:37;25.37;;;24.27;;
11431;SDS011;5772;50.940;6.782;2022-10-16T02:53:04;25.83;;;24.83;;
11431;SDS011;5772;50.940;6.782;2022-10-16T02:55:29;25.70;;;24.70;;
11431;SDS011;5772;50.940;6.782;2022-10-16T02:57:55;24.80;;;23.80;;
11431;SDS011;5772;50.940;6.782;2022-10-16T03:00:20;26.37;;;25.37;;
11431;SDS011;5772;50.940;6.782;2022-10-16T03:02:45;24.30;;;23.30;;
11431;SDS011;5772;50.940;6.782;2022-10-16T03:05:11;24.97;;;23.97;;
11431;SDS011;5772;50.940;6.782;2022-10-16T03:07:36;26.00;;;25.00;;
11431;SDS011;5772;50.940;6.782;2022-10-16T03:10:03;25.60;;;24.53;;
11431;SDS011;5772;50.940;6.782;2022-10-16T03:12:29;26.50;;;25.47;;
11431;SDS011;5772;50.940;6.782;2022-10-16T03:14:55;25.17;;;24.17;;
11431;SDS011;5772;50.940;6.782;2022-10-16T03:17:20;25.30;;;24.30;;
11431;SDS011;5772;50.940;6.782;2022-10-16T03:19:45;26.10;;;25.10;;
11431;SDS011;5772;50.940;6.782;2022-10-16T03:22:11;24.97;;;23.97;;
11431;SDS011;5772;50.940;6.782;2022-10-16T03:24:36;26.00;;;25.00;;
11431;SDS011;5772;50.940;6.782;2022-10-16T03:27:03;25.00;;;24.00;;
11431;SDS011;5772;50.940;6.782;2022-10-16T03:29:28;26.53;;;25.10;;
11431;SDS011;5772;50.940;6.782;2022-10-16T03:31:54;26.27;;;25.27;;
11431;SDS011;5772;50.940;6.782;2022-10-16T03:34:19;25.30;;;24.30;;
11431;SDS011;5772;50.940;6.782;2022-10-16T03:36:44;27.00;;;25.97;;
11431;SDS011;5772;50.940;6.782;2022-10-16T03:39:10;27.83;;;26.30;;
11431;SDS011;5772;50.940;6.782;2022-10-16T03:41:35;27.67;;;26.57;;
11431;SDS011;5772;50.940;6.782;2022-10-16T03:44:02;26.87;;;25.73;;
11431;SDS011;5772;50.940;6.782;2022-10-16T03:46:27;25.90;;;24.70;;
11431;SDS011;5772;50.940;6.782;2022-10-16T03:48:52;25.67;;;24.57;;
11431;SDS011;5772;50.940;6.782;2022-10-16T03:51:18;25.70;;;24.70;;
11431;SDS011;5772;50.940;6.782;2022-10-16T03:53:43;26.23;;;25.23;;
11431;SDS011;5772;50.940;6.782;2022-10-16T03:56:08;26.07;;;25.07;;
11431;SDS011;5772;50.940;6.782;2022-10-16T03:58:34;25.80;;;24.80;;
11431;SDS011;5772;50.940;6.782;2022-10-16T04:01:01;25.80;;;24.70;;
11431;SDS011;5772;50.940;6.782;2022-10-16T04:03:26;25.60;;;24.60;;
11431;SDS011;5772;50.940;6.782;2022-10-16T04:05:51;26.00;;;25.00;;
11431;SDS011;5772;50.940;6.782;2022-10-16T04:08:17;25.93;;;24.80;;
11431;SDS011;5772;50.940;6.782;2022-10-16T04:10:42;25.20;;;24.20;;
11431;SDS011;5772;50.940;6.782;2022-10-16T04:13:08;24.80;;;23.80;;
11431;SDS011;5772;50.940;6.782;2022-10-16T04:15:33;24.93;;;23.93;;
11431;SDS011;5772;50.940;6.782;2022-10-16T04:18:00;24.60;;;23.60;;
11431;SDS011;5772;50.940;6.782;2022-10-16T04:20:25;24.43;;;23.43;;
11431;SDS011;5772;50.940;6.782;2022-10-16T04:22:51;24.63;;;23.73;;
11431;SDS011;5772;50.940;6.782;2022-10-16T04:25:16;25.37;;;24.37;;
11431;SDS011;5772;50.940;6.782;2022-10-16T04:27:41;26.10;;;25.10;;
11431;SDS011;5772;50.940;6.782;2022-10-16T04:30:07;26.03;;;24.93;;
11431;SDS011;5772;50.940;6.782;2022-10-16T04:32:33;25.70;;;24.70;;
11431;SDS011;5772;50.940;6.782;2022-10-16T04:35:00;25.93;;;24.93;;
11431;SDS011;5772;50.940;6.782;2022-10-16T04:37:25;26.10;;;25.00;;
11431;SDS011;5772;50.940;6.782;2022-10-16T04:39:51;25.67;;;24.67;;
11431;SDS011;5772;50.940;6.782;2022-10-16T04:42:16;26.07;;;25.07;;
11431;SDS011;5772;50.940;6.782;2022-10-16T04:44:42;25.87;;;24.87;;
11431;SDS011;5772;50.940;6.782;2022-10-16T04:47:07;26.30;;;25.30;;
11431;SDS011;5772;50.940;6.782;2022-10-16T04:49:32;26.33;;;25.33;;
11431;SDS011;5772;50.940;6.782;2022-10-16T04:51:59;25.40;;;24.20;;
11431;SDS011;5772;50.940;6.782;2022-10-16T04:54:24;25.13;;;24.13;;
11431;SDS011;5772;50.940;6.782;2022-10-16T04:56:50;25.53;;;24.53;;
11431;SDS011;5772;50.940;6.782;2022-10-16T04:59:15;25.27;;;24.27;;
11431;SDS011;5772;50.940;6.782;2022-10-16T05:01:41;25.10;;;24.10;;
11431;SDS011;5772;50.940;6.782;2022-10-16T05:04:07;23.77;;;22.87;;
11431;SDS011;5772;50.940;6.782;2022-10-16T05:06:32;24.00;;;23.10;;
11431;SDS011;5772;50.940;6.782;2022-10-16T05:08:59;24.23;;;23.33;;
11431;SDS011;5772;50.940;6.782;2022-10-16T05:11:24;23.67;;;22.77;;
11431;SDS011;5772;50.940;6.782;2022-10-16T05:13:50;23.80;;;22.90;;
11431;SDS011;5772;50.940;6.782;2022-10-16T05:16:15;23.50;;;22.60;;
11431;SDS011;5772;50.940;6.782;2022-10-16T05:18:40;24.60;;;23.60;;
11431;SDS011;5772;50.940;6.782;2022-10-16T05:21:06;25.37;;;24.37;;
11431;SDS011;5772;50.940;6.782;2022-10-16T05:23:31;24.83;;;23.83;;
11431;SDS011;5772;50.940;6.782;2022-10-16T05:25:58;24.23;;;23.23;;
11431;SDS011;5772;50.940;6.782;2022-10-16T05:28:24;23.17;;;22.27;;
11431;SDS011;5772;50.940;6.782;2022-10-16T05:30:50;23.37;;;22.47;;
11431;SDS011;5772;50.940;6.782;2022-10-16T05:33:15;23.97;;;22.83;;
11431;SDS011;5772;50.940;6.782;2022-10-16T05:35:41;22.53;;;21.63;;
11431;SDS011;5772;50.940;6.782;2022-10-16T05:38:06;22.60;;;21.70;;
11431;SDS011;5772;50.940;6.782;2022-10-16T05:40:31;21.63;;;20.83;;
11431;SDS011;5772;50.940;6.782;2022-10-16T05:42:58;23.47;;;22.37;;
11431;SDS011;5772;50.940;6.782;2022-10-16T05:45:23;23.17;;;22.17;;
11431;SDS011;5772;50.940;6.782;2022-10-16T05:47:49;26.20;;;25.17;;
11431;SDS011;5772;50.940;6.782;2022-10-16T05:50:14;23.47;;;22.57;;
11431;SDS011;5772;50.940;6.782;2022-10-16T05:52:40;23.20;;;22.30;;
11431;SDS011;5772;50.940;6.782;2022-10-16T05:55:05;22.50;;;21.50;;
11431;SDS011;5772;50.940;6.782;2022-10-16T05:57:31;23.33;;;22.43;;
11431;SDS011;5772;50.940;6.782;2022-10-16T05:59:58;22.37;;;21.47;;
11431;SDS011;5772;50.940;6.782;2022-10-16T06:02:23;23.33;;;22.40;;
11431;SDS011;5772;50.940;6.782;2022-10-16T06:04:48;22.97;;;22.07;;
11431;SDS011;5772;50.940;6.782;2022-10-16T06:07:14;22.93;;;22.03;;
11431;SDS011;5772;50.940;6.782;2022-10-16T06:09:39;23.97;;;23.07;;
11431;SDS011;5772;50.940;6.782;2022-10-16T06:12:04;24.70;;;23.70;;
11431;SDS011;5772;50.940;6.782;2022-10-16T06:14:30;23.60;;;22.70;;
11431;SDS011;5772;50.940;6.782;2022-10-16T06:16:56;24.63;;;23.43;;
11431;SDS011;5772;50.940;6.782;2022-10-16T06:19:22;24.63;;;23.53;;
11431;SDS011;5772;50.940;6.782;2022-10-16T06:21:47;24.17;;;23.20;;
11431;SDS011;5772;50.940;6.782;2022-10-16T06:24:13;25.23;;;24.13;;
11431;SDS011;5772;50.940;6.782;2022-10-16T06:26:38;25.70;;;24.70;;
11431;SDS011;5772;50.940;6.782;2022-10-16T06:29:04;25.67;;;24.67;;
11431;SDS011;5772;50.940;6.782;2022-10-16T06:31:29;26.10;;;24.37;;
11431;SDS011;5772;50.940;6.782;2022-10-16T06:33:56;26.47;;;25.23;;
11431;SDS011;5772;50.940;6.782;2022-10-16T06:36:22;25.00;;;23.93;;
11431;SDS011;5772;50.940;6.782;2022-10-16T06:38:48;24.83;;;23.83;;
11431;SDS011;5772;50.940;6.782;2022-10-16T06:41:14;23.53;;;22.33;;
11431;SDS011;5772;50.940;6.782;2022-10-16T06:43:40;24.07;;;23.07;;
11431;SDS011;5772;50.940;6.782;2022-10-16T06:46:06;24.53;;;23.57;;
11431;SDS011;5772;50.940;6.782;2022-10-16T06:48:32;24.50;;;23.50;;
11431;SDS011;5772;50.940;6.782;2022-10-16T06:51:00;23.83;;;22.87;;
11431;SDS011;5772;50.940;6.782;2022-10-16T06:53:26;23.93;;;22.93;;
11431;SDS011;5772;50.940;6.782;2022-10-16T06:55:53;24.40;;;23.40;;
11431;SDS011;5772;50.940;6.782;2022-10-16T06:58:18;24.00;;;22.97;;
11431;SDS011;5772;50.940;6.782;2022-10-16T07:00:44;25.10;;;24.00;;
11431;SDS011;5772;50.940;6.782;2022-10-16T07:03:09;25.93;;;24.93;;
11431;SDS011;5772;50.940;6.782;2022-10-16T07:05:36;26.50;;;25.13;;
11431;SDS011;5772;50.940;6.782;2022-10-16T07:08:03;25.97;;;24.97;;
11431;SDS011;5772;50.940;6.782;2022-10-16T07:10:29;27.27;;;26.17;;
11431;SDS011;5772;50.940;6.782;2022-10-16T07:12:54;28.07;;;26.97;;
11431;SDS011;5772;50.940;6.782;2022-10-16T07:15:20;27.67;;;26.57;;
11431;SDS011;5772;50.940;6.782;2022-10-16T07:17:45;22.57;;;21.67;;
11431;SDS011;5772;50.940;6.782;2022-10-16T07:20:10;22.80;;;21.80;;
11431;SDS011;5772;50.940;6.782;2022-10-16T07:22:36;24.13;;;23.13;;
11431;SDS011;5772;50.940;6.782;2022-10-16T07:25:03;22.53;;;21.63;;
11431;SDS011;5772;50.940;6.782;2022-10-16T07:27:28;22.97;;;22.07;;
11431;SDS011;5772;50.940;6.782;2022-10-16T07:29:54;22.57;;;21.67;;
11431;SDS011;5772;50.940;6.782;2022-10-16T07:32:19;22.83;;;21.93;;
11431;SDS011;5772;50.940;6.782;2022-10-16T07:34:44;23.03;;;22.13;;
11431;SDS011;5772;50.940;6.782;2022-10-16T07:37:10;27.10;;;26.00;;
11431;SDS011;5772;50.940;6.782;2022-10-16T07:39:35;26.80;;;25.70;;
11431;SDS011;5772;50.940;6.782;2022-10-16T07:42:02;20.87;;;19.97;;
11431;SDS011;5772;50.940;6.782;2022-10-16T07:44:27;22.20;;;21.30;;
11431;SDS011;5772;50.940;6.782;2022-10-16T07:46:53;20.33;;;19.43;;
11431;SDS011;5772;50.940;6.782;2022-10-16T07:49:18;20.47;;;19.57;;
11431;SDS011;5772;50.940;6.782;2022-10-16T07:51:43;21.63;;;20.60;;
11431;SDS011;5772;50.940;6.782;2022-10-16T07:54:09;22.47;;;21.37;;
11431;SDS011;5772;50.940;6.782;2022-10-16T07:56:34;21.17;;;20.27;;
11431;SDS011;5772;50.940;6.782;2022-10-16T07:59:01;21.47;;;20.67;;
11431;SDS011;5772;50.940;6.782;2022-10-16T08:01:26;23.43;;;22.43;;
11431;SDS011;5772;50.940;6.782;2022-10-16T08:03:52;19.43;;;18.53;;
11431;SDS011;5772;50.940;6.782;2022-10-16T08:06:17;20.60;;;19.50;;
11431;SDS011;5772;50.940;6.782;2022-10-16T08:08:44;20.52;;;19.63;;
11431;SDS011;5772;50.940;6.782;2022-10-16T08:11:09;15.10;;;14.50;;
11431;SDS011;5772;50.940;6.782;2022-10-16T08:13:35;13.68;;;13.02;;
11431;SDS011;5772;50.940;6.782;2022-10-16T08:16:02;13.25;;;12.75;;
11431;SDS011;5772;50.940;6.782;2022-10-16T08:18:27;13.32;;;12.82;;
11431;SDS011;5772;50.940;6.782;2022-10-16T08:20:56;12.77;;;12.27;;
11431;SDS011;5772;50.940;6.782;2022-10-16T08:23:22;13.90;;;13.38;;
11431;SDS011;5772;50.940;6.782;2022-10-16T08:25:47;14.73;;;14.13;;
11431;SDS011;5772;50.940;6.782;2022-10-16T08:28:12;14.15;;;13.55;;
11431;SDS011;5772;50.940;6.782;2022-10-16T08:30:38;14.68;;;14.07;;
11431;SDS011;5772;50.940;6.782;2022-10-16T08:33:04;14.68;;;14.07;;
11431;SDS011;5772;50.940;6.782;2022-10-16T08:35:30;16.08;;;15.48;;
11431;SDS011;5772;50.940;6.782;2022-10-16T08:37:56;19.00;;;18.30;;
11431;SDS011;5772;50.940;6.782;2022-10-16T08:40:22;17.30;;;16.60;;
11431;SDS011;5772;50.940;6.782;2022-10-16T08:42:53;16.25;;;15.57;;
11431;SDS011;5772;50.940;6.782;2022-10-16T08:45:34;15.15;;;14.55;;
11431;SDS011;5772;50.940;6.782;2022-10-16T08:48:14;14.60;;;14.07;;
11431;SDS011;5772;50.940;6.782;2022-10-16T08:50:42;14.70;;;14.10;;
11431;SDS011;5772;50.940;6.782;2022-10-16T08:53:13;13.95;;;13.43;;
11431;SDS011;5772;50.940;6.782;2022-10-16T08:55:41;14.95;;;14.35;;
11431;SDS011;5772;50.940;6.782;2022-10-16T08:58:10;15.02;;;14.43;;
11431;SDS011;5772;50.940;6.782;2022-10-16T09:00:37;15.02;;;14.43;;
11431;SDS011;5772;50.940;6.782;2022-10-16T09:03:05;14.63;;;14.00;;
11431;SDS011;5772;50.940;6.782;2022-10-16T09:05:43;14.48;;;13.88;;
11431;SDS011;5772;50.940;6.782;2022-10-16T09:08:27;13.90;;;13.40;;
11431;SDS011;5772;50.940;6.782;2022-10-16T09:10:56;14.65;;;14.05;;
11431;SDS011;5772;50.940;6.782;2022-10-16T09:13:23;13.57;;;13.07;;
11431;SDS011;5772;50.940;6.782;2022-10-16T09:15:53;14.25;;;13.65;;
11431;SDS011;5772;50.940;6.782;2022-10-16T09:18:37;14.18;;;13.57;;
11431;SDS011;5772;50.940;6.782;2022-10-16T09:21:08;14.50;;;14.00;;
11431;SDS011;5772;50.940;6.782;2022-10-16T09:23:38;14.75;;;14.15;;
11431;SDS011;5772;50.940;6.782;2022-10-16T09:26:03;14.43;;;13.85;;
11431;SDS011;5772;50.940;6.782;2022-10-16T09:28:30;12.10;;;11.60;;
11431;SDS011;5772;50.940;6.782;2022-10-16T09:30:56;12.98;;;12.48;;
11431;SDS011;5772;50.940;6.782;2022-10-16T09:33:22;10.88;;;10.48;;
11431;SDS011;5772;50.940;6.782;2022-10-16T09:35:51;12.65;;;12.05;;
11431;SDS011;5772;50.940;6.782;2022-10-16T09:38:23;11.80;;;11.30;;
11431;SDS011;5772;50.940;6.782;2022-10-16T09:40:50;11.65;;;11.25;;
11431;SDS011;5772;50.940;6.782;2022-10-16T09:43:19;12.23;;;11.73;;
11431;SDS011;5772;50.940;6.782;2022-10-16T09:45:57;11.48;;;11.07;;
11431;SDS011;5772;50.940;6.782;2022-10-16T09:48:22;11.70;;;11.30;;
11431;SDS011;5772;50.940;6.782;2022-10-16T09:50:56;11.52;;;11.02;;
11431;SDS011;5772;50.940;6.782;2022-10-16T09:53:22;12.93;;;12.32;;
11431;SDS011;5772;50.940;6.782;2022-10-16T09:55:48;12.75;;;12.25;;
11431;SDS011;5772;50.940;6.782;2022-10-16T09:58:14;12.40;;;11.93;;
11431;SDS011;5772;50.940;6.782;2022-10-16T10:00:39;12.07;;;11.57;;
11431;SDS011;5772;50.940;6.782;2022-10-16T10:03:09;11.77;;;11.27;;
11431;SDS011;5772;50.940;6.782;2022-10-16T10:05:35;12.32;;;11.82;;
11431;SDS011;5772;50.940;6.782;2022-10-16T10:08:04;12.30;;;11.80;;
11431;SDS011;5772;50.940;6.782;2022-10-16T10:10:32;12.10;;;11.60;;
11431;SDS011;5772;50.940;6.782;2022-10-16T10:13:02;11.27;;;10.88;;
11431;SDS011;5772;50.940;6.782;2022-10-16T10:15:27;11.90;;;11.40;;
11431;SDS011;5772;50.940;6.782;2022-10-16T10:17:58;11.80;;;11.30;;
11431;SDS011;5772;50.940;6.782;2022-10-16T10:20:24;11.45;;;10.95;;
11431;SDS011;5772;50.940;6.782;2022-10-16T10:22:51;12.18;;;11.68;;
11431;SDS011;5772;50.940;6.782;2022-10-16T10:25:24;11.23;;;10.82;;
11431;SDS011;5772;50.940;6.782;2022-10-16T10:27:56;11.35;;;10.95;;
11431;SDS011;5772;50.940;6.782;2022-10-16T10:30:27;11.55;;;11.15;;
11431;SDS011;5772;50.940;6.782;2022-10-16T10:33:03;12.13;;;11.63;;
11431;SDS011;5772;50.940;6.782;2022-10-16T10:35:36;11.98;;;11.52;;
11431;SDS011;5772;50.940;6.782;2022-10-16T10:38:09;12.55;;;12.05;;
11431;SDS011;5772;50.940;6.782;2022-10-16T10:40:48;11.30;;;10.90;;
11431;SDS011;5772;50.940;6.782;2022-10-16T10:43:19;12.93;;;12.40;;
11431;SDS011;5772;50.940;6.782;2022-10-16T10:45:54;12.88;;;12.13;;
11431;SDS011;5772;50.940;6.782;2022-10-16T10:48:27;12.07;;;11.52;;
11431;SDS011;5772;50.940;6.782;2022-10-16T10:51:06;11.80;;;11.40;;
11431;SDS011;5772;50.940;6.782;2022-10-16T10:53:36;11.50;;;11.10;;
11431;SDS011;5772;50.940;6.782;2022-10-16T10:56:11;13.07;;;12.50;;
11431;SDS011;5772;50.940;6.782;2022-10-16T10:58:44;13.07;;;12.57;;
11431;SDS011;5772;50.940;6.782;2022-10-16T11:01:21;13.18;;;12.65;;
11431;SDS011;5772;50.940;6.782;2022-10-16T11:04:05;11.60;;;11.10;;
11431;SDS011;5772;50.940;6.782;2022-10-16T11:06:50;11.75;;;11.23;;
11431;SDS011;5772;50.940;6.782;2022-10-16T11:09:18;12.23;;;11.73;;
11431;SDS011;5772;50.940;6.782;2022-10-16T11:11:47;12.45;;;11.95;;
11431;SDS011;5772;50.940;6.782;2022-10-16T11:14:17;12.98;;;12.48;;
11431;SDS011;5772;50.940;6.782;2022-10-16T11:16:45;12.98;;;12.48;;
11431;SDS011;5772;50.940;6.782;2022-10-16T11:19:18;12.88;;;12.27;;
11431;SDS011;5772;50.940;6.782;2022-10-16T11:21:51;12.30;;;11.80;;
11431;SDS011;5772;50.940;6.782;2022-10-16T11:24:22;14.73;;;14.02;;
11431;SDS011;5772;50.940;6.782;2022-10-16T11:26:52;13.98;;;13.38;;
11431;SDS011;5772;50.940;6.782;2022-10-16T11:29:19;13.45;;;12.95;;
11431;SDS011;5772;50.940;6.782;2022-10-16T11:31:49;13.10;;;12.60;;
11431;SDS011;5772;50.940;6.782;2022-10-16T11:34:17;13.30;;;12.60;;
11431;SDS011;5772;50.940;6.782;2022-10-16T11:36:48;12.15;;;11.65;;
11431;SDS011;5772;50.940;6.782;2022-10-16T11:39:18;12.30;;;11.80;;
11431;SDS011;5772;50.940;6.782;2022-10-16T11:41:45;12.98;;;12.48;;
11431;SDS011;5772;50.940;6.782;2022-10-16T11:44:16;12.80;;;12.30;;
11431;SDS011;5772;50.940;6.782;2022-10-16T11:46:48;13.38;;;12.77;;
11431;SDS011;5772;50.940;6.782;2022-10-16T11:49:17;13.88;;;13.18;;
11431;SDS011;5772;50.940;6.782;2022-10-16T11:51:45;12.30;;;11.80;;
11431;SDS011;5772;50.940;6.782;2022-10-16T11:54:16;12.63;;;12.10;;
11431;SDS011;5772;50.940;6.782;2022-10-16T11:56:46;11.73;;;11.23;;
11431;SDS011;5772;50.940;6.782;2022-10-16T11:59:14;12.10;;;11.60;;
11431;SDS011;5772;50.940;6.782;2022-10-16T12:01:46;12.25;;;11.80;;
11431;SDS011;5772;50.940;6.782;2022-10-16T12:04:14;13.32;;;12.82;;
11431;SDS011;5772;50.940;6.782;2022-10-16T12:06:44;12.98;;;12.48;;
11431;SDS011;5772;50.940;6.782;2022-10-16T12:09:14;13.05;;;12.45;;
11431;SDS011;5772;50.940;6.782;2022-10-16T12:11:43;13.52;;;13.02;;
11431;SDS011;5772;50.940;6.782;2022-10-16T12:14:33;12.77;;;12.02;;
11431;SDS011;5772;50.940;6.782;2022-10-16T12:17:02;12.18;;;11.68;;
11431;SDS011;5772;50.940;6.782;2022-10-16T12:19:29;13.30;;;12.80;;
11431;SDS011;5772;50.940;6.782;2022-10-16T12:21:55;13.27;;;12.77;;
11431;SDS011;5772;50.940;6.782;2022-10-16T12:24:27;12.25;;;11.75;;
11431;SDS011;5772;50.940;6.782;2022-10-16T12:26:58;14.00;;;13.50;;
11431;SDS011;5772;50.940;6.782;2022-10-16T12:29:28;14.38;;;13.77;;
11431;SDS011;5772;50.940;6.782;2022-10-16T12:31:57;14.48;;;13.73;;
11431;SDS011;5772;50.940;6.782;2022-10-16T12:34:23;15.15;;;14.55;;
11431;SDS011;5772;50.940;6.782;2022-10-16T12:36:53;16.35;;;15.75;;
11431;SDS011;5772;50.940;6.782;2022-10-16T12:39:22;19.05;;;18.25;;
11431;SDS011;5772;50.940;6.782;2022-10-16T12:41:59;19.48;;;18.63;;
11431;SDS011;5772;50.940;6.782;2022-10-16T12:44:27;19.48;;;18.73;;
11431;SDS011;5772;50.940;6.782;2022-10-16T12:46:57;19.40;;;18.65;;
11431;SDS011;5772;50.940;6.782;2022-10-16T12:49:29;18.50;;;17.70;;
11431;SDS011;5772;50.940;6.782;2022-10-16T12:51:55;16.13;;;15.52;;
11431;SDS011;5772;50.940;6.782;2022-10-16T12:54:22;14.70;;;14.13;;
11431;SDS011;5772;50.940;6.782;2022-10-16T12:56:56;14.95;;;14.35;;
11431;SDS011;5772;50.940;6.782;2022-10-16T12:59:38;12.90;;;12.40;;
11431;SDS011;5772;50.940;6.782;2022-10-16T13:02:21;13.55;;;13.00;;
11431;SDS011;5772;50.940;6.782;2022-10-16T13:05:14;13.63;;;13.13;;
11431;SDS011;5772;50.940;6.782;2022-10-16T13:07:49;14.55;;;13.95;;
11431;SDS011;5772;50.940;6.782;2022-10-16T13:10:20;15.77;;;15.18;;
11431;SDS011;5772;50.940;6.782;2022-10-16T13:12:54;15.70;;;15.10;;
11431;SDS011;5772;50.940;6.782;2022-10-16T13:15:34;14.38;;;13.88;;
11431;SDS011;5772;50.940;6.782;2022-10-16T13:18:09;15.23;;;14.63;;
11431;SDS011;5772;50.940;6.782;2022-10-16T13:20:46;17.35;;;16.65;;
11431;SDS011;5772;50.940;6.782;2022-10-16T13:23:20;17.67;;;16.98;;
11431;SDS011;5772;50.940;6.782;2022-10-16T13:25:51;22.23;;;21.33;;
11431;SDS011;5772;50.940;6.782;2022-10-16T13:28:27;20.77;;;19.98;;
11431;SDS011;5772;50.940;6.782;2022-10-16T13:30:56;19.50;;;18.60;;
11431;SDS011;5772;50.940;6.782;2022-10-16T13:33:24;18.02;;;17.33;;
11431;SDS011;5772;50.940;6.782;2022-10-16T13:35:54;20.05;;;19.25;;
11431;SDS011;5772;50.940;6.782;2022-10-16T13:38:21;19.83;;;19.02;;
11431;SDS011;5772;50.940;6.782;2022-10-16T13:40:51;18.35;;;17.63;;
11431;SDS011;5772;50.940;6.782;2022-10-16T13:43:18;15.98;;;15.38;;
11431;SDS011;5772;50.940;6.782;2022-10-16T13:45:52;15.15;;;14.55;;
11431;SDS011;5772;50.940;6.782;2022-10-16T13:48:20;15.10;;;14.50;;
11431;SDS011;5772;50.940;6.782;2022-10-16T13:50:45;16.63;;;16.02;;
11431;SDS011;5772;50.940;6.782;2022-10-16T13:53:12;18.45;;;17.67;;
11431;SDS011;5772;50.940;6.782;2022-10-16T13:55:38;19.27;;;18.52;;
11431;SDS011;5772;50.940;6.782;2022-10-16T13:58:04;18.60;;;17.90;;
11431;SDS011;5772;50.940;6.782;2022-10-16T14:00:30;18.85;;;18.15;;
11431;SDS011;5772;50.940;6.782;2022-10-16T14:02:58;17.92;;;17.23;;
11431;SDS011;5772;50.940;6.782;2022-10-16T14:05:26;19.33;;;18.30;;
11431;SDS011;5772;50.940;6.782;2022-10-16T14:07:51;26.63;;;25.63;;
11431;SDS011;5772;50.940;6.782;2022-10-16T14:10:21;31.88;;;30.58;;
11431;SDS011;5772;50.940;6.782;2022-10-16T14:12:53;32.90;;;31.60;;
11431;SDS011;5772;50.940;6.782;2022-10-16T14:15:20;37.30;;;35.85;;
11431;SDS011;5772;50.940;6.782;2022-10-16T14:17:45;46.25;;;44.17;;
11431;SDS011;5772;50.940;6.782;2022-10-16T14:20:15;43.55;;;41.78;;
11431;SDS011;5772;50.940;6.782;2022-10-16T14:22:41;36.20;;;34.80;;
11431;SDS011;5772;50.940;6.782;2022-10-16T14:25:19;35.75;;;34.33;;
11431;SDS011;5772;50.940;6.782;2022-10-16T14:27:55;45.83;;;43.78;;
11431;SDS011;5772;50.940;6.782;2022-10-16T14:30:22;51.28;;;49.28;;
11431;SDS011;5772;50.940;6.782;2022-10-16T14:32:54;49.53;;;47.42;;
11431;SDS011;5772;50.940;6.782;2022-10-16T14:35:29;49.03;;;47.10;;
11431;SDS011;5772;50.940;6.782;2022-10-16T14:37:56;47.55;;;45.65;;